CheckWX is a tool to help pilots better visualize weather data.  It is not intended as a substitute for an official pre-flight weather briefing.

05:23:41 UTC

SCIE METAR
Carriel Sur Airport
Concepcion, Chile
Current

24 mins ago

SCIE 160500Z VRB02KT CAVOK 08/03 Q1021
Observed
Jun-16 @ 05:00 UTC
Wind
  • Variable at 2 KTS
Visibility
10,000+ meters
Flight Rules
VFR
Cloud Levels
  • Clear skies
Temperature
C / 46°F
Dewpoint
C / 37°F
Humidity
71%
Altimeter
30.15" Hg
Pressure
1020.92 hPa
Previous

1 hour ago

SCIE 160400Z 19005KT CAVOK 08/03 Q1021
Observed
Jun-16 @ 04:00 UTC
Wind
  • 190° at 5 KTS
Visibility
10,000+ meters
Flight Rules
VFR
Cloud Levels
  • Clear skies
Temperature
C / 46°F
Dewpoint
C / 37°F
Humidity
71%
Altimeter
30.15" Hg
Pressure
1020.92 hPa
Previous

2 hours ago

SCIE 160300Z 12008KT CAVOK 07/04 Q1021
Observed
Jun-16 @ 03:00 UTC
Wind
  • 120° at 8 KTS
Visibility
10,000+ meters
Flight Rules
VFR
Cloud Levels
  • Clear skies
Temperature
C / 45°F
Dewpoint
C / 39°F
Humidity
81%
Altimeter
30.15" Hg
Pressure
1020.92 hPa